Time;durP1;ratioP1;P1;durP2;ratioP2;P2;SDS_P1;SDS_P2;PMS_P1;PMS_P2;Temp;Humidity;BMP_temperature;BMP_pressure;BME280_temperature;BME280_humidity;BME280_pressure;Samples;Min_cycle;Max_cycle;Signal;HPM_P1;HPM_P2
2022/07/16 00:03:36;;;;;;;2.77;1.40;;;15.00;99.90;;;;;;4964474;28;20241;-85
2022/07/16 00:06:03;;;;;;;3.73;1.23;;;15.00;99.90;;;;;;4974967;28;20228;-86
2022/07/16 00:08:29;;;;;;;3.23;1.50;;;15.00;99.90;;;;;;4970925;28;20233;-87
2022/07/16 00:10:56;;;;;;;1.67;1.37;;;15.00;99.90;;;;;;4963512;28;20279;-86
2022/07/16 00:13:24;;;;;;;3.70;1.73;;;15.00;99.90;;;;;;4972192;28;20235;-86
2022/07/16 00:15:51;;;;;;;1.90;1.13;;;15.10;99.90;;;;;;4963332;28;20222;-89
2022/07/16 00:21:02;;;;;;;4.53;1.83;;;15.10;99.90;;;;;;4986255;28;20226;-88
2022/07/16 00:23:29;;;;;;;1.37;1.23;;;15.10;99.90;;;;;;4978108;28;20226;-88
2022/07/16 00:25:55;;;;;;;3.23;1.27;;;15.10;99.90;;;;;;4966929;28;20708;-90
2022/07/16 00:28:22;;;;;;;2.83;1.20;;;15.00;99.90;;;;;;4966180;28;20228;-90
2022/07/16 00:30:50;;;;;;;3.90;1.33;;;15.00;99.90;;;;;;4975507;28;20233;-90
2022/07/16 00:33:17;;;;;;;2.30;1.20;;;15.00;99.90;;;;;;4982303;28;20220;-87
2022/07/16 00:35:43;;;;;;;2.73;1.60;;;15.00;99.90;;;;;;4966616;28;20376;-87
2022/07/16 00:38:12;;;;;;;4.13;1.70;;;15.00;99.90;;;;;;4969858;28;20303;-86
2022/07/16 00:40:39;;;;;;;3.53;1.60;;;15.00;99.90;;;;;;4968607;28;20312;-87
2022/07/16 00:43:10;;;;;;;4.10;1.70;;;15.00;99.90;;;;;;4965166;28;20238;-87
2022/07/16 00:45:37;;;;;;;4.73;1.80;;;15.00;99.90;;;;;;4975401;28;20229;-88
2022/07/16 00:48:06;;;;;;;6.03;1.90;;;14.90;99.90;;;;;;4980901;28;20639;-87
2022/07/16 00:50:33;;;;;;;3.73;1.90;;;14.80;99.90;;;;;;4992546;28;20232;-87
2022/07/16 00:53:01;;;;;;;4.67;1.97;;;14.80;99.90;;;;;;4973545;28;20585;-88
2022/07/16 00:55:28;;;;;;;3.27;2.20;;;14.70;99.90;;;;;;4977846;28;20232;-89
2022/07/16 00:57:55;;;;;;;7.13;2.23;;;14.70;99.90;;;;;;4964887;28;20221;-87
2022/07/16 01:00:22;;;;;;;5.53;2.23;;;14.60;99.90;;;;;;4978256;28;20259;-86
2022/07/16 01:02:50;;;;;;;2.57;2.33;;;14.50;99.90;;;;;;4969448;28;20560;-85
2022/07/16 01:05:19;;;;;;;3.77;2.10;;;14.50;99.90;;;;;;4981228;28;20777;-89
2022/07/16 01:07:46;;;;;;;4.33;2.10;;;14.40;99.90;;;;;;4972816;28;20258;-87
2022/07/16 01:10:14;;;;;;;3.33;2.10;;;14.30;99.90;;;;;;4965752;28;20229;-89
2022/07/16 01:12:41;;;;;;;3.37;2.17;;;14.30;99.90;;;;;;4988592;28;20237;-87
2022/07/16 01:15:08;;;;;;;5.13;2.20;;;14.30;99.90;;;;;;4963853;28;20254;-87
2022/07/16 01:17:35;;;;;;;4.80;2.30;;;14.20;99.90;;;;;;4971656;28;20242;-88
2022/07/16 01:20:02;;;;;;;4.40;2.60;;;14.20;99.90;;;;;;4972361;28;20227;-89
2022/07/16 01:22:30;;;;;;;2.40;2.13;;;14.20;99.90;;;;;;4967267;28;20248;-87
2022/07/16 01:24:58;;;;;;;5.10;2.20;;;14.10;99.90;;;;;;4961931;28;20894;-91
2022/07/16 01:27:25;;;;;;;5.77;2.47;;;14.10;99.90;;;;;;4965935;28;20228;-90
2022/07/16 01:29:52;;;;;;;4.43;2.17;;;14.10;99.90;;;;;;4981845;28;20234;-89
2022/07/16 01:32:19;;;;;;;5.13;2.10;;;14.10;99.90;;;;;;4970972;28;20233;-89
2022/07/16 01:34:45;;;;;;;5.20;2.10;;;14.00;99.90;;;;;;4967154;28;20321;-90
2022/07/16 01:37:14;;;;;;;5.30;2.30;;;14.00;99.90;;;;;;4968833;28;20264;-88
2022/07/16 01:39:41;;;;;;;4.90;3.10;;;14.00;99.90;;;;;;4969547;28;20279;-88
2022/07/16 01:42:10;;;;;;;7.07;2.80;;;13.90;99.90;;;;;;4969250;28;20280;-88
2022/07/16 01:44:38;;;;;;;6.03;2.80;;;13.90;99.90;;;;;;4966402;28;20228;-88
2022/07/16 01:47:06;;;;;;;5.10;2.90;;;13.90;99.90;;;;;;4968082;28;20758;-88
2022/07/16 01:49:34;;;;;;;5.43;2.80;;;13.80;99.90;;;;;;4974522;28;20231;-88
2022/07/16 01:52:06;;;;;;;5.27;2.97;;;13.80;99.90;;;;;;4989134;28;21049;-88
2022/07/16 01:54:33;;;;;;;4.60;3.10;;;13.80;99.90;;;;;;4948189;28;20260;-88
2022/07/16 01:57:00;;;;;;;5.50;3.30;;;13.70;99.90;;;;;;4961313;28;20226;-88
2022/07/16 01:59:28;;;;;;;4.20;3.23;;;13.70;99.90;;;;;;4968883;28;20230;-91
2022/07/16 02:01:55;;;;;;;4.17;3.07;;;13.70;99.90;;;;;;4965176;28;20232;-86
2022/07/16 02:04:22;;;;;;;6.27;3.53;;;13.70;99.90;;;;;;4977292;28;20375;-84
2022/07/16 02:06:48;;;;;;;5.63;3.30;;;13.70;99.90;;;;;;4966942;28;20221;-86
2022/07/16 02:09:15;;;;;;;5.23;3.43;;;13.60;99.90;;;;;;4986833;28;20952;-90
2022/07/16 02:11:42;;;;;;;5.70;3.37;;;13.60;99.90;;;;;;4972317;28;20254;-88
2022/07/16 02:14:08;;;;;;;5.63;3.67;;;13.60;99.90;;;;;;4970393;28;20228;-88
2022/07/16 02:16:37;;;;;;;6.17;3.30;;;13.60;99.90;;;;;;4971878;28;20231;-88
2022/07/16 02:19:03;;;;;;;4.90;3.30;;;13.60;99.90;;;;;;4972379;28;20216;-88
2022/07/16 02:21:31;;;;;;;6.87;3.33;;;13.60;99.90;;;;;;4982257;28;20229;-90
2022/07/16 02:23:58;;;;;;;5.40;3.20;;;13.60;99.90;;;;;;4976674;28;20255;-89
2022/07/16 02:26:25;;;;;;;4.40;3.10;;;13.60;99.90;;;;;;4968680;28;20248;-91
2022/07/16 02:28:52;;;;;;;5.60;3.23;;;13.60;99.90;;;;;;4969919;28;20616;-90
2022/07/16 02:31:20;;;;;;;4.50;3.30;;;13.60;99.90;;;;;;4983313;28;20231;-88
2022/07/16 02:33:48;;;;;;;6.10;3.40;;;13.60;99.90;;;;;;4969067;28;20228;-89
2022/07/16 02:36:14;;;;;;;6.10;3.70;;;13.60;99.90;;;;;;4971692;28;20222;-88
2022/07/16 02:38:41;;;;;;;5.00;3.23;;;13.60;99.90;;;;;;4972207;28;20222;-88
2022/07/16 02:41:08;;;;;;;6.50;3.00;;;13.60;99.90;;;;;;4981525;28;20256;-90
2022/07/16 02:43:35;;;;;;;3.53;3.10;;;13.60;99.90;;;;;;4963073;28;20751;-86
2022/07/16 02:46:01;;;;;;;5.20;2.93;;;13.60;99.90;;;;;;4965856;28;20221;-86
2022/07/16 02:48:28;;;;;;;3.60;2.63;;;13.60;99.90;;;;;;4963687;28;20237;-87
2022/07/16 02:50:56;;;;;;;4.40;2.80;;;13.60;99.90;;;;;;4985306;28;20245;-88
2022/07/16 02:53:23;;;;;;;4.70;2.53;;;13.60;99.90;;;;;;4979874;28;20229;-87
2022/07/16 02:55:50;;;;;;;4.17;2.57;;;13.60;99.90;;;;;;4981317;28;20229;-88
2022/07/16 02:58:17;;;;;;;3.20;2.37;;;13.60;99.90;;;;;;4986877;28;20225;-88
2022/07/16 03:00:44;;;;;;;3.00;2.20;;;13.70;99.90;;;;;;4957939;28;20229;-87
2022/07/16 03:03:11;;;;;;;2.77;2.10;;;13.70;99.90;;;;;;4970172;28;20309;-90
2022/07/16 03:05:38;;;;;;;3.07;2.33;;;13.70;99.90;;;;;;4982849;28;20232;-87
2022/07/16 03:08:07;;;;;;;3.07;2.10;;;13.70;99.90;;;;;;4989075;23;20312;-92
2022/07/16 03:10:33;;;;;;;3.03;1.90;;;13.70;99.90;;;;;;4991062;28;20235;-91
2022/07/16 03:13:00;;;;;;;1.90;1.70;;;13.70;99.90;;;;;;4997360;28;20313;-92
2022/07/16 03:15:27;;;;;;;2.43;1.80;;;13.70;99.90;;;;;;4991962;28;20289;-91
2022/07/16 03:17:54;;;;;;;3.17;1.73;;;13.70;99.90;;;;;;4990947;28;20248;-92
2022/07/16 03:20:20;;;;;;;4.63;1.90;;;13.70;99.90;;;;;;4987593;28;20223;-92
2022/07/16 03:22:48;;;;;;;3.10;1.70;;;13.70;99.90;;;;;;4991695;28;20221;-92
2022/07/16 03:25:17;;;;;;;1.73;1.37;;;13.70;99.90;;;;;;4987855;28;20738;-92
2022/07/16 03:27:44;;;;;;;1.97;1.60;;;13.70;99.90;;;;;;4982412;28;20224;-91
2022/07/16 03:30:12;;;;;;;2.40;1.53;;;13.60;99.90;;;;;;4987796;28;20845;-92
2022/07/16 03:32:39;;;;;;;4.07;1.87;;;13.60;99.90;;;;;;4987887;28;20242;-91
2022/07/16 03:35:07;;;;;;;2.10;1.80;;;13.60;99.90;;;;;;4986794;28;20243;-92
2022/07/16 03:37:34;;;;;;;3.30;1.67;;;13.70;99.90;;;;;;4995658;28;20342;-91
2022/07/16 03:40:01;;;;;;;5.23;1.77;;;13.60;99.90;;;;;;4989819;28;20251;-92
2022/07/16 03:42:29;;;;;;;2.87;1.80;;;13.60;99.90;;;;;;4993456;28;20239;-91
2022/07/16 03:44:56;;;;;;;3.03;1.67;;;13.60;99.90;;;;;;4995186;28;20259;-92
2022/07/16 03:47:23;;;;;;;4.70;1.67;;;13.50;99.90;;;;;;4999228;28;20314;-92
2022/07/16 03:49:49;;;;;;;2.43;1.53;;;13.50;99.90;;;;;;4994746;28;20234;-92
2022/07/16 03:52:16;;;;;;;2.37;1.47;;;13.50;99.90;;;;;;4997183;28;20314;-91
2022/07/16 03:54:43;;;;;;;3.63;1.70;;;13.40;99.90;;;;;;4995871;28;20223;-92
2022/07/16 03:57:09;;;;;;;3.73;1.67;;;13.40;99.90;;;;;;4999406;28;20223;-92
2022/07/16 03:59:37;;;;;;;1.97;1.73;;;13.40;99.90;;;;;;5001002;28;20239;-92
2022/07/16 04:02:04;;;;;;;2.63;1.70;;;13.40;99.90;;;;;;4984055;28;20293;-91
2022/07/16 04:04:31;;;;;;;3.23;2.00;;;13.30;99.90;;;;;;4995580;28;20282;-92
2022/07/16 04:06:58;;;;;;;2.53;1.57;;;13.30;99.90;;;;;;5004902;28;20225;-92
2022/07/16 04:09:24;;;;;;;3.10;1.50;;;13.30;99.90;;;;;;5002829;28;20241;-92
2022/07/16 04:11:51;;;;;;;1.83;1.53;;;13.40;99.90;;;;;;4999215;28;20235;-91
2022/07/16 04:14:18;;;;;;;4.73;1.77;;;13.30;99.90;;;;;;4997079;28;20293;-91
2022/07/16 04:16:46;;;;;;;4.20;1.60;;;13.30;99.90;;;;;;4994427;28;20240;-92
2022/07/16 04:19:13;;;;;;;3.73;1.77;;;13.30;99.90;;;;;;4995412;28;20252;-91
2022/07/16 04:21:40;;;;;;;3.30;1.50;;;13.40;99.90;;;;;;5006237;28;20228;-91
2022/07/16 04:24:07;;;;;;;3.47;1.47;;;13.40;99.90;;;;;;5005670;28;20248;-91
2022/07/16 04:26:34;;;;;;;2.20;1.70;;;13.40;99.90;;;;;;5002522;28;20264;-91
2022/07/16 04:29:00;;;;;;;3.77;1.80;;;13.40;99.90;;;;;;5002940;28;20241;-92
2022/07/16 04:31:27;;;;;;;4.50;2.50;;;13.50;99.90;;;;;;4995298;28;20225;-92
2022/07/16 04:33:55;;;;;;;5.03;1.60;;;13.50;99.90;;;;;;4993272;28;20820;-92
2022/07/16 04:36:22;;;;;;;2.60;1.80;;;13.60;99.90;;;;;;4990217;28;20289;-92
2022/07/16 04:38:49;;;;;;;3.53;1.63;;;13.60;99.90;;;;;;4985387;28;20225;-92
2022/07/16 04:41:16;;;;;;;3.40;1.80;;;13.60;99.90;;;;;;4991772;28;20234;-92
2022/07/16 04:43:42;;;;;;;2.23;1.60;;;13.60;99.90;;;;;;4998188;28;20299;-91
2022/07/16 04:46:09;;;;;;;2.93;1.50;;;13.60;99.90;;;;;;5004081;28;20238;-90
2022/07/16 04:48:36;;;;;;;3.50;1.77;;;13.60;99.90;;;;;;5010298;28;20283;-91
2022/07/16 04:51:04;;;;;;;3.63;1.70;;;13.60;99.90;;;;;;5005956;28;20315;-90
2022/07/16 04:53:31;;;;;;;3.90;1.53;;;13.60;99.90;;;;;;5007683;28;20241;-91
2022/07/16 04:55:58;;;;;;;5.07;1.40;;;13.60;99.90;;;;;;5007616;28;20273;-91
2022/07/16 04:58:25;;;;;;;4.07;1.63;;;13.60;99.90;;;;;;5003672;28;20241;-91
2022/07/16 05:00:51;;;;;;;2.37;1.77;;;13.60;99.90;;;;;;5005850;28;20222;-91
2022/07/16 05:03:18;;;;;;;3.37;1.40;;;13.60;99.90;;;;;;5000984;28;20213;-91
2022/07/16 05:05:45;;;;;;;2.13;1.33;;;13.60;99.90;;;;;;5005745;28;20242;-91
2022/07/16 05:08:13;;;;;;;3.60;1.80;;;13.60;99.90;;;;;;5000881;28;20318;-92
2022/07/16 05:10:40;;;;;;;5.00;1.40;;;13.60;99.90;;;;;;5000639;28;20239;-91
2022/07/16 05:13:07;;;;;;;3.23;1.73;;;13.70;99.90;;;;;;5010950;28;20303;-90
2022/07/16 05:15:34;;;;;;;4.87;1.70;;;13.80;99.90;;;;;;5005937;28;20265;-90
2022/07/16 05:18:01;;;;;;;2.77;1.47;;;13.90;99.90;;;;;;5003456;28;20245;-91
2022/07/16 05:20:28;;;;;;;3.03;1.43;;;14.00;99.90;;;;;;4994368;28;20235;-92
2022/07/16 05:22:55;;;;;;;2.57;1.50;;;14.10;99.90;;;;;;4997097;28;20461;-92
2022/07/16 05:25:24;;;;;;;3.70;1.30;;;14.20;99.90;;;;;;5004419;28;20271;-92
2022/07/16 05:27:51;;;;;;;3.03;1.70;;;14.20;99.90;;;;;;5002949;28;20276;-91
2022/07/16 05:30:18;;;;;;;4.20;1.37;;;14.30;99.90;;;;;;5003039;28;20713;-91
2022/07/16 05:32:46;;;;;;;1.60;1.37;;;14.40;99.90;;;;;;5003532;28;20769;-93
2022/07/16 05:35:18;;;;;;;4.07;1.47;;;14.50;99.90;;;;;;4989344;28;20224;-92
2022/07/16 05:37:45;;;;;;;4.27;1.70;;;14.50;99.90;;;;;;4998971;28;20279;-91
2022/07/16 05:40:13;;;;;;;3.97;1.40;;;14.50;99.90;;;;;;4997734;28;20221;-91
2022/07/16 05:42:41;;;;;;;9.07;2.03;;;14.50;99.90;;;;;;5001967;28;20372;-91
2022/07/16 05:45:09;;;;;;;3.47;1.53;;;14.50;99.90;;;;;;5000554;28;20210;-91
2022/07/16 05:47:36;;;;;;;3.30;1.60;;;14.50;99.90;;;;;;5003348;28;20227;-90
2022/07/16 05:50:03;;;;;;;7.53;1.50;;;14.50;99.90;;;;;;4997846;28;20223;-91
2022/07/16 05:52:30;;;;;;;5.07;1.70;;;14.40;99.90;;;;;;4991809;28;20281;-91
2022/07/16 05:54:57;;;;;;;4.30;1.30;;;14.30;99.90;;;;;;4998628;28;20221;-92
2022/07/16 05:57:23;;;;;;;2.87;1.33;;;14.30;99.90;;;;;;4990814;28;20266;-93
2022/07/16 05:59:52;;;;;;;3.40;1.30;;;14.30;99.90;;;;;;4992158;28;20210;-91
2022/07/16 06:02:18;;;;;;;5.23;1.40;;;14.20;99.90;;;;;;5010823;28;20316;-92
2022/07/16 06:04:49;;;;;;;6.87;1.60;;;14.20;99.90;;;;;;4990690;28;20232;-93
2022/07/16 06:07:16;;;;;;;4.10;1.23;;;14.30;99.90;;;;;;4989406;28;20240;-90
2022/07/16 06:09:43;;;;;;;3.63;1.30;;;14.30;99.90;;;;;;4999641;28;20222;-92
2022/07/16 06:12:10;;;;;;;6.37;1.70;;;14.30;99.90;;;;;;5005919;28;20245;-92
2022/07/16 06:14:36;;;;;;;2.63;1.00;;;14.40;99.90;;;;;;4997743;28;20224;-91
2022/07/16 06:17:04;;;;;;;4.70;1.30;;;14.50;99.90;;;;;;4997835;28;20221;-91
2022/07/16 06:19:31;;;;;;;5.20;1.37;;;14.50;99.90;;;;;;4996078;28;20229;-90
2022/07/16 06:21:58;;;;;;;2.77;1.30;;;14.60;99.90;;;;;;4998832;28;20228;-92
2022/07/16 06:24:25;;;;;;;3.33;1.47;;;14.70;99.90;;;;;;4997455;28;20297;-91
2022/07/16 06:26:52;;;;;;;5.00;1.17;;;14.70;99.90;;;;;;4994354;28;20296;-90
2022/07/16 06:29:19;;;;;;;3.60;1.20;;;14.70;99.90;;;;;;4992190;28;20270;-91
2022/07/16 06:31:46;;;;;;;5.63;1.30;;;14.70;99.90;;;;;;5008890;28;20270;-90
2022/07/16 06:34:14;;;;;;;4.33;1.10;;;14.80;99.90;;;;;;4998226;28;20322;-91
2022/07/16 06:36:41;;;;;;;5.73;1.30;;;14.80;99.90;;;;;;5002857;28;20289;-91
2022/07/16 06:39:08;;;;;;;5.20;1.50;;;14.80;99.90;;;;;;5004582;28;20236;-91
2022/07/16 06:41:37;;;;;;;1.90;1.30;;;14.80;99.90;;;;;;5010209;28;20216;-92
2022/07/16 06:44:04;;;;;;;4.70;1.40;;;14.80;99.90;;;;;;5001282;28;20263;-92
2022/07/16 06:46:31;;;;;;;3.83;1.20;;;14.90;99.90;;;;;;4993769;28;20237;-91
2022/07/16 06:48:58;;;;;;;4.17;1.20;;;14.90;99.90;;;;;;4998243;28;20327;-91
2022/07/16 06:51:27;;;;;;;3.30;1.17;;;14.90;99.90;;;;;;4999025;28;20332;-90
2022/07/16 06:53:54;;;;;;;1.87;1.10;;;14.90;99.90;;;;;;4997889;28;20228;-89
2022/07/16 06:56:20;;;;;;;4.53;1.33;;;15.00;99.90;;;;;;5002965;28;20314;-90
2022/07/16 06:58:47;;;;;;;4.50;1.20;;;15.10;99.90;;;;;;5001376;28;21226;-92
2022/07/16 07:01:14;;;;;;;4.50;1.00;;;15.10;99.90;;;;;;5004052;28;20226;-92
2022/07/16 07:03:41;;;;;;;4.87;1.10;;;15.10;99.90;;;;;;4991831;28;20757;-90
2022/07/16 07:06:08;;;;;;;3.33;0.80;;;15.10;99.90;;;;;;4987084;28;20316;-91
2022/07/16 07:08:36;;;;;;;4.40;0.87;;;15.10;99.90;;;;;;4991855;28;20244;-91
2022/07/16 07:11:04;;;;;;;3.90;1.00;;;15.20;99.90;;;;;;4991988;28;20469;-94
2022/07/16 07:13:31;;;;;;;3.90;1.27;;;15.30;99.90;;;;;;4985344;28;20218;-92
2022/07/16 07:15:58;;;;;;;2.90;1.10;;;15.50;99.90;;;;;;4999762;28;20289;-93
2022/07/16 07:18:25;;;;;;;6.50;1.20;;;15.90;99.90;;;;;;4994642;28;20313;-93
2022/07/16 07:20:51;;;;;;;3.90;1.30;;;16.20;99.90;;;;;;4993759;28;20309;-91
2022/07/16 07:23:18;;;;;;;3.90;1.40;;;16.50;99.90;;;;;;5000798;28;20252;-94
2022/07/16 07:25:46;;;;;;;3.77;1.07;;;16.90;99.90;;;;;;5000349;28;20289;-93
2022/07/16 07:28:13;;;;;;;3.73;1.23;;;17.10;99.30;;;;;;4997266;28;20325;-92
2022/07/16 07:30:40;;;;;;;2.80;1.07;;;17.30;98.50;;;;;;5001032;28;20302;-94
2022/07/16 07:33:08;;;;;;;6.35;1.45;;;17.50;98.00;;;;;;5002945;28;20600;-93
2022/07/16 07:35:34;;;;;;;3.90;1.00;;;17.50;97.70;;;;;;4999790;28;21020;-92
2022/07/16 07:38:01;;;;;;;6.57;1.38;;;17.60;97.50;;;;;;5004773;28;20450;-93
2022/07/16 07:40:28;;;;;;;4.83;1.27;;;17.70;96.80;;;;;;4995883;28;20238;-93
2022/07/16 07:42:56;;;;;;;3.83;1.20;;;17.80;96.40;;;;;;5010289;28;20324;-93
2022/07/16 07:45:23;;;;;;;3.20;1.00;;;17.90;95.60;;;;;;5004812;28;20226;-93
2022/07/16 07:47:50;;;;;;;4.32;1.35;;;18.00;95.40;;;;;;5011736;28;20234;-92
2022/07/16 07:50:16;;;;;;;3.63;1.20;;;18.00;95.30;;;;;;5004117;28;20249;-94
2022/07/16 07:52:43;;;;;;;4.28;1.20;;;18.20;95.00;;;;;;5000374;28;20246;-93
2022/07/16 07:55:10;;;;;;;2.53;0.90;;;18.30;94.80;;;;;;5003499;28;20245;-93
2022/07/16 07:57:37;;;;;;;3.65;1.00;;;18.40;95.20;;;;;;5011712;28;20264;-94
2022/07/16 08:00:08;;;;;;;8.25;1.20;;;18.70;95.30;;;;;;5003775;28;20229;-93
2022/07/16 08:02:43;;;;;;;3.10;1.17;;;19.00;94.40;;;;;;5001551;28;20222;-93
2022/07/16 08:05:10;;;;;;;4.20;1.10;;;19.40;93.30;;;;;;4999959;28;20244;-93
2022/07/16 08:07:37;;;;;;;5.25;1.23;;;19.60;93.30;;;;;;5000601;28;20218;-93
2022/07/16 08:10:04;;;;;;;2.90;0.98;;;20.00;92.50;;;;;;5012689;28;20289;-93
2022/07/16 08:12:31;;;;;;;4.30;1.20;;;20.20;91.70;;;;;;5000428;28;20237;-93
2022/07/16 08:14:58;;;;;;;3.67;1.15;;;20.50;91.10;;;;;;5004739;28;20242;-93
2022/07/16 08:17:26;;;;;;;3.70;1.13;;;20.70;90.50;;;;;;4997681;28;20367;-92
2022/07/16 08:19:53;;;;;;;3.20;0.93;;;20.70;88.90;;;;;;5003749;28;20233;-93
2022/07/16 08:22:20;;;;;;;4.18;1.30;;;20.50;87.70;;;;;;5002634;28;20233;-94
2022/07/16 08:27:31;;;;;;;3.58;1.25;;;20.10;89.00;;;;;;5004253;28;20230;-95
2022/07/16 08:29:58;;;;;;;5.47;1.02;;;19.90;90.10;;;;;;5002731;28;20285;-93
2022/07/16 08:32:26;;;;;;;3.92;1.38;;;19.90;90.80;;;;;;4994229;28;20313;-94
2022/07/16 08:34:53;;;;;;;4.85;1.13;;;20.10;90.80;;;;;;5001168;28;20309;-94
2022/07/16 08:37:32;;;;;;;2.50;1.08;;;20.50;90.20;;;;;;5009544;28;20973;-93
2022/07/16 08:39:58;;;;;;;2.60;1.00;;;20.90;88.70;;;;;;5001965;28;20217;-93
2022/07/16 08:42:26;;;;;;;2.72;0.70;;;21.30;88.30;;;;;;5008369;28;20819;-93
2022/07/16 08:44:53;;;;;;;2.90;1.20;;;21.60;88.40;;;;;;5002196;28;20246;-93
2022/07/16 08:47:21;;;;;;;4.20;1.30;;;21.90;83.50;;;;;;4999664;28;20849;-94
2022/07/16 08:49:50;;;;;;;4.43;1.02;;;22.20;83.50;;;;;;5001064;28;20999;-94
2022/07/16 08:52:20;;;;;;;3.35;1.05;;;22.60;81.90;;;;;;5000988;28;20320;-93
2022/07/16 08:54:49;;;;;;;3.55;1.00;;;22.80;80.80;;;;;;5001017;28;20253;-93
2022/07/16 08:57:17;;;;;;;2.28;0.75;;;23.00;79.50;;;;;;5001410;28;20294;-94
2022/07/16 08:59:44;;;;;;;2.95;0.90;;;23.10;77.90;;;;;;5005935;28;20293;-94
2022/07/16 09:02:12;;;;;;;3.33;1.10;;;23.10;75.50;;;;;;4999793;28;20304;-95
2022/07/16 09:04:39;;;;;;;2.90;0.77;;;23.10;74.30;;;;;;5001753;28;20254;-94
2022/07/16 09:07:11;;;;;;;3.28;0.80;;;22.90;75.10;;;;;;5009642;28;20241;-94
2022/07/16 09:09:38;;;;;;;2.83;1.02;;;22.70;73.70;;;;;;5003500;28;20233;-93
2022/07/16 09:12:05;;;;;;;3.97;0.90;;;22.40;74.60;;;;;;5004694;28;20230;-94
2022/07/16 09:14:32;;;;;;;2.97;0.98;;;22.00;74.60;;;;;;4998351;28;20226;-94
2022/07/16 09:16:58;;;;;;;2.92;0.80;;;21.70;75.20;;;;;;5002822;28;20703;-93
2022/07/16 09:19:27;;;;;;;3.20;0.80;;;21.40;74.50;;;;;;5008154;28;20285;-94
2022/07/16 09:22:04;;;;;;;3.47;1.02;;;21.20;75.00;;;;;;5011403;28;20893;-93
2022/07/16 09:24:34;;;;;;;4.78;1.15;;;20.90;75.80;;;;;;5003026;28;20243;-94
2022/07/16 09:27:02;;;;;;;2.22;0.70;;;20.90;77.30;;;;;;5010335;28;20330;-94
2022/07/16 09:29:35;;;;;;;3.22;1.02;;;21.00;77.90;;;;;;5009917;28;20225;-94
2022/07/16 09:32:01;;;;;;;3.38;0.98;;;21.20;76.10;;;;;;5001767;28;20280;-94
2022/07/16 09:34:29;;;;;;;1.60;0.80;;;21.40;76.50;;;;;;4999740;28;20248;-93
2022/07/16 09:36:58;;;;;;;4.75;1.05;;;21.60;77.10;;;;;;5006856;28;20248;-93
2022/07/16 09:39:25;;;;;;;1.80;0.80;;;21.90;76.60;;;;;;5013340;28;20299;-94
2022/07/16 09:41:53;;;;;;;2.80;0.90;;;22.10;75.30;;;;;;5008444;28;20285;-94
2022/07/16 09:44:21;;;;;;;4.88;0.90;;;22.40;74.10;;;;;;4996317;28;20519;-94
2022/07/16 09:47:03;;;;;;;2.28;0.70;;;22.50;72.50;;;;;;5003090;28;20252;-93
2022/07/16 09:49:34;;;;;;;4.10;1.13;;;22.70;70.80;;;;;;5001127;28;20272;-93
2022/07/16 09:52:01;;;;;;;2.78;0.95;;;22.80;70.70;;;;;;5004283;28;20226;-93
2022/07/16 09:54:30;;;;;;;4.40;1.02;;;22.90;71.70;;;;;;4998196;28;20316;-94
2022/07/16 09:57:13;;;;;;;6.07;1.20;;;23.10;71.70;;;;;;5003925;28;20225;-93
2022/07/16 09:59:40;;;;;;;3.88;0.90;;;23.20;69.90;;;;;;5004159;28;20225;-93
2022/07/16 10:02:08;;;;;;;2.65;1.13;;;23.40;69.30;;;;;;4997535;28;20230;-93
2022/07/16 10:04:35;;;;;;;4.00;1.30;;;23.40;68.00;;;;;;4989066;28;20379;-94
2022/07/16 10:07:02;;;;;;;2.30;0.70;;;23.30;68.50;;;;;;5000532;28;20221;-94
2022/07/16 10:09:29;;;;;;;5.13;1.08;;;23.10;68.70;;;;;;5003590;28;20236;-94
2022/07/16 10:11:58;;;;;;;4.53;1.08;;;22.90;68.90;;;;;;4992989;28;20258;-94
2022/07/16 10:14:26;;;;;;;5.20;1.13;;;22.80;70.30;;;;;;4996277;28;20237;-94
2022/07/16 10:16:59;;;;;;;4.50;1.67;;;22.80;70.50;;;;;;4997533;28;20281;-93
2022/07/16 10:19:36;;;;;;;3.05;1.05;;;22.90;70.00;;;;;;4996303;28;20759;-94
2022/07/16 10:22:15;;;;;;;3.45;1.10;;;23.00;68.80;;;;;;5013214;28;20222;-93
2022/07/16 10:24:47;;;;;;;4.53;1.08;;;23.10;69.70;;;;;;4997476;28;20289;-94
2022/07/16 10:27:24;;;;;;;5.50;1.35;;;23.30;69.10;;;;;;5008517;28;20264;-94
2022/07/16 10:30:09;;;;;;;2.40;0.82;;;23.60;69.50;;;;;;4998645;28;20230;-93
2022/07/16 10:33:16;;;;;;;5.10;1.35;;;23.80;70.00;;;;;;5001927;28;20246;-93
2022/07/16 10:35:48;;;;;;;3.60;0.90;;;24.10;66.50;;;;;;5008034;28;20287;-94
2022/07/16 10:38:18;;;;;;;3.35;0.90;;;24.20;66.30;;;;;;5008282;28;20251;-92
2022/07/16 10:40:47;;;;;;;3.25;0.95;;;24.20;64.80;;;;;;4993376;28;20281;-93
2022/07/16 10:43:16;;;;;;;5.88;1.50;;;24.10;65.10;;;;;;4994332;28;20242;-93
2022/07/16 10:45:54;;;;;;;3.35;1.10;;;24.10;64.60;;;;;;4998088;28;20231;-94
2022/07/16 10:48:21;;;;;;;2.63;0.90;;;24.20;65.70;;;;;;5008591;28;20264;-93
2022/07/16 10:51:09;;;;;;;3.50;1.10;;;24.20;65.00;;;;;;4991031;28;20231;-94
2022/07/16 10:54:09;;;;;;;2.47;1.13;;;24.00;64.70;;;;;;5007917;28;20221;-94
2022/07/16 10:56:38;;;;;;;3.50;0.90;;;23.70;63.70;;;;;;5001130;28;20231;-94
2022/07/16 10:59:07;;;;;;;2.42;1.00;;;23.40;64.00;;;;;;5002915;28;20285;-94
2022/07/16 11:01:36;;;;;;;1.80;0.82;;;23.10;65.00;;;;;;5005706;28;20253;-94
2022/07/16 11:04:03;;;;;;;3.85;1.38;;;23.00;66.10;;;;;;5002190;28;20237;-94
2022/07/16 11:06:31;;;;;;;3.75;1.10;;;23.00;66.70;;;;;;5006878;28;20292;-94
2022/07/16 11:08:59;;;;;;;3.90;1.02;;;23.10;66.40;;;;;;4995629;28;20312;-94
2022/07/16 11:11:32;;;;;;;2.75;0.95;;;23.20;66.70;;;;;;4998074;28;20236;-93
2022/07/16 11:13:59;;;;;;;3.55;1.00;;;23.20;65.90;;;;;;4995252;28;20272;-94
2022/07/16 11:16:27;;;;;;;7.13;1.10;;;23.20;65.50;;;;;;4995693;28;20312;-94
2022/07/16 11:18:55;;;;;;;2.67;1.10;;;23.10;65.20;;;;;;5005012;28;20226;-94
2022/07/16 11:21:22;;;;;;;4.22;1.10;;;23.10;65.40;;;;;;5003614;28;20257;-94
2022/07/16 11:23:49;;;;;;;2.95;1.00;;;23.10;66.10;;;;;;5003275;28;20370;-93
2022/07/16 11:26:16;;;;;;;2.95;1.02;;;23.30;65.80;;;;;;5005357;28;20254;-94
2022/07/16 11:28:51;;;;;;;6.43;1.30;;;23.40;65.90;;;;;;5016415;28;20244;-94
2022/07/16 11:31:24;;;;;;;7.57;1.25;;;23.60;64.00;;;;;;5004502;28;20225;-92
2022/07/16 11:33:53;;;;;;;4.57;1.00;;;23.70;63.80;;;;;;4999732;28;20290;-94
2022/07/16 11:36:21;;;;;;;4.70;1.40;;;23.70;63.00;;;;;;5006069;28;20326;-94
2022/07/16 11:38:48;;;;;;;4.20;0.98;;;23.60;62.80;;;;;;5005166;28;20217;-93
2022/07/16 11:41:15;;;;;;;3.47;1.13;;;23.40;63.10;;;;;;4998160;28;20311;-94
2022/07/16 11:43:41;;;;;;;4.13;1.30;;;23.20;62.90;;;;;;5009822;28;20234;-94
2022/07/16 11:46:21;;;;;;;4.43;1.30;;;22.90;63.60;;;;;;4998596;28;20250;-93
2022/07/16 11:48:48;;;;;;;5.57;1.15;;;22.70;64.30;;;;;;5001215;28;20226;-94
2022/07/16 11:51:15;;;;;;;5.82;1.00;;;22.40;63.80;;;;;;4988517;28;20222;-93
2022/07/16 11:53:49;;;;;;;4.07;1.33;;;22.20;64.40;;;;;;5010444;28;20241;-91
2022/07/16 11:56:30;;;;;;;2.58;1.20;;;22.00;65.90;;;;;;5007352;28;20225;-92
2022/07/16 11:58:57;;;;;;;3.50;1.23;;;21.90;66.10;;;;;;4993499;28;20214;-92
2022/07/16 12:01:24;;;;;;;3.47;1.15;;;21.90;65.70;;;;;;5007532;28;20325;-92
2022/07/16 12:03:54;;;;;;;3.95;1.00;;;22.00;66.40;;;;;;5008351;28;20206;-92
2022/07/16 12:06:21;;;;;;;2.30;1.02;;;22.20;63.50;;;;;;5007127;28;20202;-92
2022/07/16 12:08:53;;;;;;;4.22;1.02;;;22.40;63.50;;;;;;5007639;28;20299;-92
2022/07/16 12:11:19;;;;;;;3.53;1.00;;;22.60;63.90;;;;;;5003951;28;20229;-91
2022/07/16 12:13:52;;;;;;;4.47;1.45;;;22.70;64.60;;;;;;5004089;28;20242;-92
2022/07/16 12:16:20;;;;;;;3.85;1.15;;;22.90;63.70;;;;;;5006424;28;20217;-92
2022/07/16 12:19:03;;;;;;;5.55;1.73;;;23.00;63.40;;;;;;5006827;28;20221;-93
2022/07/16 12:21:31;;;;;;;5.18;1.33;;;23.00;63.30;;;;;;5004507;28;20245;-93
2022/07/16 12:24:00;;;;;;;3.85;1.05;;;22.90;61.50;;;;;;5008373;28;20214;-92
2022/07/16 12:26:34;;;;;;;5.30;1.00;;;22.90;61.20;;;;;;5001561;28;20286;-93
2022/07/16 12:29:05;;;;;;;4.80;1.00;;;22.70;61.20;;;;;;5009823;28;20222;-93
2022/07/16 12:31:33;;;;;;;4.53;1.20;;;22.70;61.70;;;;;;5006620;28;20214;-91
2022/07/16 12:34:02;;;;;;;6.43;1.30;;;22.60;62.20;;;;;;5006200;28;20229;-92
2022/07/16 12:36:29;;;;;;;3.95;1.20;;;22.50;63.10;;;;;;5011569;28;20222;-93
2022/07/16 12:38:59;;;;;;;4.90;1.20;;;22.60;62.60;;;;;;5006485;28;20210;-91
2022/07/16 12:41:30;;;;;;;4.70;1.23;;;22.60;62.60;;;;;;5008211;28;20246;-91
2022/07/16 12:44:05;;;;;;;4.40;1.05;;;22.60;62.40;;;;;;5010620;28;20238;-93
2022/07/16 12:46:34;;;;;;;3.80;1.10;;;22.50;62.00;;;;;;5008279;28;20210;-92
2022/07/16 12:49:03;;;;;;;4.22;1.08;;;22.50;62.90;;;;;;5006955;28;20226;-92
2022/07/16 12:51:33;;;;;;;5.07;1.30;;;22.40;62.50;;;;;;5003919;28;20223;-91
2022/07/16 12:54:01;;;;;;;5.05;1.35;;;22.40;63.60;;;;;;5001546;28;20269;-94
2022/07/16 12:59:15;;;;;;;6.22;1.27;;;22.50;63.10;;;;;;5007543;28;20237;-94
2022/07/16 13:01:42;;;;;;;5.97;1.30;;;22.60;63.50;;;;;;5010814;28;20237;-94
2022/07/16 13:04:10;;;;;;;5.88;1.55;;;22.60;63.00;;;;;;5007313;28;20427;-94